sensor_id;sensor_type;location;lat;lon;timestamp;P1;durP1;ratioP1;P2;durP2;ratioP2
69894;SDS011;57172;52.034;5.090;2023-10-19T00:00:57;20.95;;;11.27;;
69894;SDS011;57172;52.034;5.090;2023-10-19T00:03:26;19.40;;;10.68;;
69894;SDS011;57172;52.034;5.090;2023-10-19T00:05:55;20.13;;;11.50;;
69894;SDS011;57172;52.034;5.090;2023-10-19T00:08:22;20.47;;;11.63;;
69894;SDS011;57172;52.034;5.090;2023-10-19T00:10:50;18.02;;;10.60;;
69894;SDS011;57172;52.034;5.090;2023-10-19T00:13:34;20.77;;;12.02;;
69894;SDS011;57172;52.034;5.090;2023-10-19T00:16:02;16.52;;;8.73;;
69894;SDS011;57172;52.034;5.090;2023-10-19T00:18:38;21.55;;;12.13;;
69894;SDS011;57172;52.034;5.090;2023-10-19T00:21:09;19.27;;;10.33;;
69894;SDS011;57172;52.034;5.090;2023-10-19T00:23:52;19.10;;;10.55;;
69894;SDS011;57172;52.034;5.090;2023-10-19T00:26:24;20.50;;;12.15;;
69894;SDS011;57172;52.034;5.090;2023-10-19T00:28:55;22.33;;;12.38;;
69894;SDS011;57172;52.034;5.090;2023-10-19T00:31:26;18.67;;;10.65;;
69894;SDS011;57172;52.034;5.090;2023-10-19T00:33:55;23.90;;;12.63;;
69894;SDS011;57172;52.034;5.090;2023-10-19T00:36:23;22.15;;;12.27;;
69894;SDS011;57172;52.034;5.090;2023-10-19T00:38:51;22.42;;;13.23;;
69894;SDS011;57172;52.034;5.090;2023-10-19T00:41:23;20.23;;;11.18;;
69894;SDS011;57172;52.034;5.090;2023-10-19T00:43:56;22.40;;;12.82;;
69894;SDS011;57172;52.034;5.090;2023-10-19T00:46:29;23.03;;;13.27;;
69894;SDS011;57172;52.034;5.090;2023-10-19T00:49:04;20.80;;;12.45;;
69894;SDS011;57172;52.034;5.090;2023-10-19T00:51:34;31.05;;;13.00;;
69894;SDS011;57172;52.034;5.090;2023-10-19T00:54:10;25.83;;;12.90;;
69894;SDS011;57172;52.034;5.090;2023-10-19T00:56:43;22.17;;;11.90;;
69894;SDS011;57172;52.034;5.090;2023-10-19T00:59:18;20.43;;;11.77;;
69894;SDS011;57172;52.034;5.090;2023-10-19T01:01:51;22.70;;;12.90;;
69894;SDS011;57172;52.034;5.090;2023-10-19T01:04:29;23.25;;;13.23;;
69894;SDS011;57172;52.034;5.090;2023-10-19T01:07:00;25.65;;;13.90;;
69894;SDS011;57172;52.034;5.090;2023-10-19T01:09:47;27.10;;;13.85;;
69894;SDS011;57172;52.034;5.090;2023-10-19T01:12:19;24.90;;;13.23;;
69894;SDS011;57172;52.034;5.090;2023-10-19T01:15:02;23.13;;;13.18;;
69894;SDS011;57172;52.034;5.090;2023-10-19T01:17:32;27.05;;;13.50;;
69894;SDS011;57172;52.034;5.090;2023-10-19T01:20:12;23.85;;;13.00;;
69894;SDS011;57172;52.034;5.090;2023-10-19T01:22:55;22.33;;;12.43;;
69894;SDS011;57172;52.034;5.090;2023-10-19T01:25:47;23.80;;;12.07;;
69894;SDS011;57172;52.034;5.090;2023-10-19T01:28:34;23.80;;;12.10;;
69894;SDS011;57172;52.034;5.090;2023-10-19T01:31:16;22.85;;;12.25;;
69894;SDS011;57172;52.034;5.090;2023-10-19T01:34:00;22.95;;;11.45;;
69894;SDS011;57172;52.034;5.090;2023-10-19T01:36:30;24.48;;;12.43;;
69894;SDS011;57172;52.034;5.090;2023-10-19T01:39:02;16.47;;;9.27;;
69894;SDS011;57172;52.034;5.090;2023-10-19T01:41:35;20.58;;;10.50;;
69894;SDS011;57172;52.034;5.090;2023-10-19T01:44:03;15.60;;;8.40;;
69894;SDS011;57172;52.034;5.090;2023-10-19T01:46:33;16.20;;;7.65;;
69894;SDS011;57172;52.034;5.090;2023-10-19T01:49:02;18.25;;;9.15;;
69894;SDS011;57172;52.034;5.090;2023-10-19T01:51:31;19.00;;;9.70;;
69894;SDS011;57172;52.034;5.090;2023-10-19T01:53:59;19.02;;;10.40;;
69894;SDS011;57172;52.034;5.090;2023-10-19T01:56:29;17.45;;;8.85;;
69894;SDS011;57172;52.034;5.090;2023-10-19T01:58:56;19.75;;;10.63;;
69894;SDS011;57172;52.034;5.090;2023-10-19T02:01:27;19.02;;;10.68;;
69894;SDS011;57172;52.034;5.090;2023-10-19T02:03:55;20.83;;;10.37;;
69894;SDS011;57172;52.034;5.090;2023-10-19T02:06:26;19.92;;;10.15;;
69894;SDS011;57172;52.034;5.090;2023-10-19T02:08:58;16.48;;;9.30;;
69894;SDS011;57172;52.034;5.090;2023-10-19T02:11:27;15.40;;;8.98;;
69894;SDS011;57172;52.034;5.090;2023-10-19T02:13:56;17.90;;;9.90;;
69894;SDS011;57172;52.034;5.090;2023-10-19T02:16:30;15.07;;;8.07;;
69894;SDS011;57172;52.034;5.090;2023-10-19T02:18:59;16.83;;;9.07;;
69894;SDS011;57172;52.034;5.090;2023-10-19T02:21:27;16.95;;;9.20;;
69894;SDS011;57172;52.034;5.090;2023-10-19T02:23:58;15.70;;;8.73;;
69894;SDS011;57172;52.034;5.090;2023-10-19T02:26:26;16.98;;;8.82;;
69894;SDS011;57172;52.034;5.090;2023-10-19T02:28:53;18.10;;;8.80;;
69894;SDS011;57172;52.034;5.090;2023-10-19T02:31:23;18.95;;;9.15;;
69894;SDS011;57172;52.034;5.090;2023-10-19T02:33:54;15.93;;;9.15;;
69894;SDS011;57172;52.034;5.090;2023-10-19T02:36:27;16.27;;;9.13;;
69894;SDS011;57172;52.034;5.090;2023-10-19T02:38:58;15.07;;;8.35;;
69894;SDS011;57172;52.034;5.090;2023-10-19T02:41:35;17.37;;;9.17;;
69894;SDS011;57172;52.034;5.090;2023-10-19T02:44:03;17.42;;;9.48;;
69894;SDS011;57172;52.034;5.090;2023-10-19T02:46:46;19.00;;;8.30;;
69894;SDS011;57172;52.034;5.090;2023-10-19T02:49:14;15.27;;;8.23;;
69894;SDS011;57172;52.034;5.090;2023-10-19T02:51:46;15.18;;;8.20;;
69894;SDS011;57172;52.034;5.090;2023-10-19T02:54:22;16.63;;;7.87;;
69894;SDS011;57172;52.034;5.090;2023-10-19T02:56:52;14.57;;;8.02;;
69894;SDS011;57172;52.034;5.090;2023-10-19T02:59:20;14.70;;;7.82;;
69894;SDS011;57172;52.034;5.090;2023-10-19T03:01:50;14.07;;;7.20;;
69894;SDS011;57172;52.034;5.090;2023-10-19T03:04:28;16.08;;;7.68;;
69894;SDS011;57172;52.034;5.090;2023-10-19T03:06:56;14.27;;;7.37;;
69894;SDS011;57172;52.034;5.090;2023-10-19T03:09:23;13.95;;;7.25;;
69894;SDS011;57172;52.034;5.090;2023-10-19T03:11:56;12.60;;;7.10;;
69894;SDS011;57172;52.034;5.090;2023-10-19T03:14:30;15.20;;;6.50;;
69894;SDS011;57172;52.034;5.090;2023-10-19T03:16:59;10.55;;;5.57;;
69894;SDS011;57172;52.034;5.090;2023-10-19T03:19:27;13.77;;;6.20;;
69894;SDS011;57172;52.034;5.090;2023-10-19T03:21:54;11.95;;;5.65;;
69894;SDS011;57172;52.034;5.090;2023-10-19T03:24:22;12.45;;;6.00;;
69894;SDS011;57172;52.034;5.090;2023-10-19T03:26:50;12.50;;;5.65;;
69894;SDS011;57172;52.034;5.090;2023-10-19T03:29:17;9.73;;;5.15;;
69894;SDS011;57172;52.034;5.090;2023-10-19T03:31:58;11.10;;;5.30;;
69894;SDS011;57172;52.034;5.090;2023-10-19T03:34:28;12.02;;;5.40;;
69894;SDS011;57172;52.034;5.090;2023-10-19T03:37:02;11.98;;;5.30;;
69894;SDS011;57172;52.034;5.090;2023-10-19T03:39:33;10.32;;;4.90;;
69894;SDS011;57172;52.034;5.090;2023-10-19T03:42:01;13.02;;;4.95;;
69894;SDS011;57172;52.034;5.090;2023-10-19T03:44:27;8.73;;;4.20;;
69894;SDS011;57172;52.034;5.090;2023-10-19T03:47:05;7.60;;;4.05;;
69894;SDS011;57172;52.034;5.090;2023-10-19T03:49:38;7.47;;;4.13;;
69894;SDS011;57172;52.034;5.090;2023-10-19T03:52:07;9.48;;;3.90;;
69894;SDS011;57172;52.034;5.090;2023-10-19T03:54:34;11.13;;;3.70;;
69894;SDS011;57172;52.034;5.090;2023-10-19T03:57:10;7.83;;;3.17;;
69894;SDS011;57172;52.034;5.090;2023-10-19T03:59:39;8.07;;;3.03;;
69894;SDS011;57172;52.034;5.090;2023-10-19T04:02:09;7.38;;;2.90;;
69894;SDS011;57172;52.034;5.090;2023-10-19T04:04:40;7.78;;;2.67;;
69894;SDS011;57172;52.034;5.090;2023-10-19T04:07:10;12.32;;;2.50;;
69894;SDS011;57172;52.034;5.090;2023-10-19T04:09:49;4.53;;;2.30;;
69894;SDS011;57172;52.034;5.090;2023-10-19T04:12:38;5.15;;;2.20;;
69894;SDS011;57172;52.034;5.090;2023-10-19T04:15:09;4.10;;;1.67;;
69894;SDS011;57172;52.034;5.090;2023-10-19T04:17:37;5.57;;;2.25;;
69894;SDS011;57172;52.034;5.090;2023-10-19T04:20:06;5.88;;;2.10;;
69894;SDS011;57172;52.034;5.090;2023-10-19T04:22:53;5.80;;;1.97;;
69894;SDS011;57172;52.034;5.090;2023-10-19T04:25:20;4.32;;;1.75;;
69894;SDS011;57172;52.034;5.090;2023-10-19T04:27:51;6.30;;;1.80;;
69894;SDS011;57172;52.034;5.090;2023-10-19T04:30:19;4.45;;;1.60;;
69894;SDS011;57172;52.034;5.090;2023-10-19T04:32:49;5.53;;;1.80;;
69894;SDS011;57172;52.034;5.090;2023-10-19T04:35:17;6.60;;;1.70;;
69894;SDS011;57172;52.034;5.090;2023-10-19T04:37:48;4.88;;;1.80;;
69894;SDS011;57172;52.034;5.090;2023-10-19T04:40:20;5.63;;;1.35;;
69894;SDS011;57172;52.034;5.090;2023-10-19T04:42:52;5.95;;;1.80;;
69894;SDS011;57172;52.034;5.090;2023-10-19T04:45:20;7.07;;;1.60;;
69894;SDS011;57172;52.034;5.090;2023-10-19T04:47:50;5.27;;;1.50;;
69894;SDS011;57172;52.034;5.090;2023-10-19T04:50:19;4.32;;;1.50;;
69894;SDS011;57172;52.034;5.090;2023-10-19T04:52:46;7.28;;;1.70;;
69894;SDS011;57172;52.034;5.090;2023-10-19T04:55:14;4.90;;;1.58;;
69894;SDS011;57172;52.034;5.090;2023-10-19T04:57:41;9.18;;;1.80;;
69894;SDS011;57172;52.034;5.090;2023-10-19T05:00:08;3.17;;;1.50;;
69894;SDS011;57172;52.034;5.090;2023-10-19T05:02:39;4.40;;;1.50;;
69894;SDS011;57172;52.034;5.090;2023-10-19T05:05:07;4.35;;;1.52;;
69894;SDS011;57172;52.034;5.090;2023-10-19T05:07:35;4.70;;;1.60;;
69894;SDS011;57172;52.034;5.090;2023-10-19T05:10:02;3.80;;;1.42;;
69894;SDS011;57172;52.034;5.090;2023-10-19T05:12:31;4.20;;;1.60;;
69894;SDS011;57172;52.034;5.090;2023-10-19T05:14:58;2.58;;;1.30;;
69894;SDS011;57172;52.034;5.090;2023-10-19T05:17:25;4.80;;;1.70;;
69894;SDS011;57172;52.034;5.090;2023-10-19T05:19:54;5.55;;;1.40;;
69894;SDS011;57172;52.034;5.090;2023-10-19T05:22:21;3.28;;;1.45;;
69894;SDS011;57172;52.034;5.090;2023-10-19T05:24:51;4.50;;;1.30;;
69894;SDS011;57172;52.034;5.090;2023-10-19T05:27:18;2.25;;;1.20;;
69894;SDS011;57172;52.034;5.090;2023-10-19T05:29:46;3.22;;;1.50;;
69894;SDS011;57172;52.034;5.090;2023-10-19T05:32:13;7.97;;;1.45;;
69894;SDS011;57172;52.034;5.090;2023-10-19T05:34:40;3.67;;;1.63;;
69894;SDS011;57172;52.034;5.090;2023-10-19T05:37:08;4.30;;;1.50;;
69894;SDS011;57172;52.034;5.090;2023-10-19T05:39:35;5.78;;;1.48;;
69894;SDS011;57172;52.034;5.090;2023-10-19T05:42:03;7.13;;;1.60;;
69894;SDS011;57172;52.034;5.090;2023-10-19T05:44:31;9.15;;;1.65;;
69894;SDS011;57172;52.034;5.090;2023-10-19T05:46:59;6.07;;;1.60;;
69894;SDS011;57172;52.034;5.090;2023-10-19T05:49:26;7.80;;;1.70;;
69894;SDS011;57172;52.034;5.090;2023-10-19T05:51:56;5.40;;;1.40;;
69894;SDS011;57172;52.034;5.090;2023-10-19T05:54:23;10.73;;;1.80;;
69894;SDS011;57172;52.034;5.090;2023-10-19T05:56:50;8.50;;;1.50;;
69894;SDS011;57172;52.034;5.090;2023-10-19T05:59:19;7.75;;;1.55;;
69894;SDS011;57172;52.034;5.090;2023-10-19T06:01:46;6.03;;;1.83;;
69894;SDS011;57172;52.034;5.090;2023-10-19T06:04:13;5.93;;;1.63;;
69894;SDS011;57172;52.034;5.090;2023-10-19T06:06:43;6.97;;;1.85;;
69894;SDS011;57172;52.034;5.090;2023-10-19T06:09:10;6.47;;;1.83;;
69894;SDS011;57172;52.034;5.090;2023-10-19T06:11:37;6.57;;;1.90;;
69894;SDS011;57172;52.034;5.090;2023-10-19T06:14:08;4.73;;;1.57;;
69894;SDS011;57172;52.034;5.090;2023-10-19T06:16:36;5.38;;;1.88;;
69894;SDS011;57172;52.034;5.090;2023-10-19T06:19:03;5.75;;;1.60;;
69894;SDS011;57172;52.034;5.090;2023-10-19T06:21:31;6.60;;;2.00;;
69894;SDS011;57172;52.034;5.090;2023-10-19T06:23:59;7.00;;;1.77;;
69894;SDS011;57172;52.034;5.090;2023-10-19T06:26:27;9.33;;;2.73;;
69894;SDS011;57172;52.034;5.090;2023-10-19T06:28:54;6.85;;;2.28;;
69894;SDS011;57172;52.034;5.090;2023-10-19T06:31:29;8.85;;;2.40;;
69894;SDS011;57172;52.034;5.090;2023-10-19T06:33:56;7.60;;;2.25;;
69894;SDS011;57172;52.034;5.090;2023-10-19T06:36:24;4.78;;;1.88;;
69894;SDS011;57172;52.034;5.090;2023-10-19T06:38:52;7.60;;;1.67;;
69894;SDS011;57172;52.034;5.090;2023-10-19T06:41:21;4.95;;;1.80;;
69894;SDS011;57172;52.034;5.090;2023-10-19T06:43:49;8.73;;;2.00;;
69894;SDS011;57172;52.034;5.090;2023-10-19T06:46:16;8.13;;;2.08;;
69894;SDS011;57172;52.034;5.090;2023-10-19T06:48:43;5.57;;;2.10;;
69894;SDS011;57172;52.034;5.090;2023-10-19T06:51:11;6.87;;;1.80;;
69894;SDS011;57172;52.034;5.090;2023-10-19T06:53:38;6.25;;;1.90;;
69894;SDS011;57172;52.034;5.090;2023-10-19T06:56:05;5.65;;;2.20;;
69894;SDS011;57172;52.034;5.090;2023-10-19T06:58:33;5.75;;;1.98;;
69894;SDS011;57172;52.034;5.090;2023-10-19T07:01:01;6.78;;;2.10;;
69894;SDS011;57172;52.034;5.090;2023-10-19T07:03:32;9.13;;;2.03;;
69894;SDS011;57172;52.034;5.090;2023-10-19T07:05:59;8.73;;;2.33;;
69894;SDS011;57172;52.034;5.090;2023-10-19T07:08:26;6.82;;;2.50;;
69894;SDS011;57172;52.034;5.090;2023-10-19T07:10:53;6.88;;;2.13;;
69894;SDS011;57172;52.034;5.090;2023-10-19T07:13:20;7.80;;;2.20;;
69894;SDS011;57172;52.034;5.090;2023-10-19T07:15:48;8.00;;;2.40;;
69894;SDS011;57172;52.034;5.090;2023-10-19T07:18:15;8.15;;;2.20;;
69894;SDS011;57172;52.034;5.090;2023-10-19T07:20:43;10.02;;;2.40;;
69894;SDS011;57172;52.034;5.090;2023-10-19T07:23:15;6.20;;;2.50;;
69894;SDS011;57172;52.034;5.090;2023-10-19T07:25:48;7.90;;;2.33;;
69894;SDS011;57172;52.034;5.090;2023-10-19T07:28:19;5.60;;;2.00;;
69894;SDS011;57172;52.034;5.090;2023-10-19T07:30:48;8.25;;;1.80;;
69894;SDS011;57172;52.034;5.090;2023-10-19T07:33:17;5.72;;;2.00;;
69894;SDS011;57172;52.034;5.090;2023-10-19T07:35:46;4.88;;;2.10;;
69894;SDS011;57172;52.034;5.090;2023-10-19T07:38:14;7.60;;;2.20;;
69894;SDS011;57172;52.034;5.090;2023-10-19T07:40:41;9.60;;;1.93;;
69894;SDS011;57172;52.034;5.090;2023-10-19T07:43:10;6.60;;;1.90;;
69894;SDS011;57172;52.034;5.090;2023-10-19T07:45:37;8.02;;;2.25;;
69894;SDS011;57172;52.034;5.090;2023-10-19T07:48:04;7.85;;;2.25;;
69894;SDS011;57172;52.034;5.090;2023-10-19T07:50:37;7.68;;;2.50;;
69894;SDS011;57172;52.034;5.090;2023-10-19T07:53:07;7.03;;;2.17;;
69894;SDS011;57172;52.034;5.090;2023-10-19T07:55:35;8.52;;;2.10;;
69894;SDS011;57172;52.034;5.090;2023-10-19T07:58:04;8.05;;;2.13;;
69894;SDS011;57172;52.034;5.090;2023-10-19T08:00:33;6.22;;;2.50;;
69894;SDS011;57172;52.034;5.090;2023-10-19T08:03:01;7.03;;;2.03;;
69894;SDS011;57172;52.034;5.090;2023-10-19T08:05:29;8.37;;;2.47;;
69894;SDS011;57172;52.034;5.090;2023-10-19T08:07:56;9.55;;;2.28;;
69894;SDS011;57172;52.034;5.090;2023-10-19T08:10:25;8.82;;;2.50;;
69894;SDS011;57172;52.034;5.090;2023-10-19T08:12:53;6.63;;;2.40;;
69894;SDS011;57172;52.034;5.090;2023-10-19T08:15:22;10.43;;;2.50;;
69894;SDS011;57172;52.034;5.090;2023-10-19T08:17:50;8.50;;;2.30;;
69894;SDS011;57172;52.034;5.090;2023-10-19T08:20:20;9.93;;;2.60;;
69894;SDS011;57172;52.034;5.090;2023-10-19T08:22:54;9.10;;;2.50;;
69894;SDS011;57172;52.034;5.090;2023-10-19T08:25:24;9.93;;;3.15;;
69894;SDS011;57172;52.034;5.090;2023-10-19T08:28:13;8.60;;;2.47;;
69894;SDS011;57172;52.034;5.090;2023-10-19T08:30:41;8.53;;;2.47;;
69894;SDS011;57172;52.034;5.090;2023-10-19T08:33:08;6.82;;;2.40;;
69894;SDS011;57172;52.034;5.090;2023-10-19T08:35:35;13.55;;;3.17;;
69894;SDS011;57172;52.034;5.090;2023-10-19T08:38:02;7.32;;;2.80;;
69894;SDS011;57172;52.034;5.090;2023-10-19T08:40:36;12.10;;;2.65;;
69894;SDS011;57172;52.034;5.090;2023-10-19T08:43:04;9.17;;;2.53;;
69894;SDS011;57172;52.034;5.090;2023-10-19T08:45:31;6.68;;;2.45;;
69894;SDS011;57172;52.034;5.090;2023-10-19T08:48:01;5.15;;;2.33;;
69894;SDS011;57172;52.034;5.090;2023-10-19T08:50:32;10.13;;;2.40;;
69894;SDS011;57172;52.034;5.090;2023-10-19T08:53:01;7.97;;;2.55;;
69894;SDS011;57172;52.034;5.090;2023-10-19T08:55:29;8.63;;;2.57;;
69894;SDS011;57172;52.034;5.090;2023-10-19T08:58:15;8.35;;;2.30;;
69894;SDS011;57172;52.034;5.090;2023-10-19T09:00:50;7.05;;;2.20;;
69894;SDS011;57172;52.034;5.090;2023-10-19T09:03:22;11.23;;;2.20;;
69894;SDS011;57172;52.034;5.090;2023-10-19T09:05:51;9.35;;;2.17;;
69894;SDS011;57172;52.034;5.090;2023-10-19T09:08:18;7.40;;;2.33;;
69894;SDS011;57172;52.034;5.090;2023-10-19T09:10:49;10.15;;;2.50;;
69894;SDS011;57172;52.034;5.090;2023-10-19T09:13:19;5.97;;;2.28;;
69894;SDS011;57172;52.034;5.090;2023-10-19T09:15:47;8.77;;;2.38;;
69894;SDS011;57172;52.034;5.090;2023-10-19T09:18:25;6.25;;;2.20;;
69894;SDS011;57172;52.034;5.090;2023-10-19T09:20:57;7.77;;;2.53;;
69894;SDS011;57172;52.034;5.090;2023-10-19T09:23:34;8.45;;;2.20;;
69894;SDS011;57172;52.034;5.090;2023-10-19T09:26:03;7.25;;;2.30;;
69894;SDS011;57172;52.034;5.090;2023-10-19T09:28:35;4.90;;;2.17;;
69894;SDS011;57172;52.034;5.090;2023-10-19T09:31:04;9.48;;;2.20;;
69894;SDS011;57172;52.034;5.090;2023-10-19T09:33:36;6.43;;;2.20;;
69894;SDS011;57172;52.034;5.090;2023-10-19T09:36:06;5.90;;;2.15;;
69894;SDS011;57172;52.034;5.090;2023-10-19T09:38:48;6.63;;;1.83;;
69894;SDS011;57172;52.034;5.090;2023-10-19T09:41:18;7.00;;;2.28;;
69894;SDS011;57172;52.034;5.090;2023-10-19T09:43:48;10.40;;;2.60;;
69894;SDS011;57172;52.034;5.090;2023-10-19T09:46:20;9.73;;;2.47;;
69894;SDS011;57172;52.034;5.090;2023-10-19T09:48:49;12.02;;;2.45;;
69894;SDS011;57172;52.034;5.090;2023-10-19T09:51:16;9.90;;;2.70;;
69894;SDS011;57172;52.034;5.090;2023-10-19T09:53:47;6.47;;;1.98;;
69894;SDS011;57172;52.034;5.090;2023-10-19T09:56:19;5.10;;;1.85;;
69894;SDS011;57172;52.034;5.090;2023-10-19T09:58:49;8.27;;;2.20;;
69894;SDS011;57172;52.034;5.090;2023-10-19T10:01:20;8.05;;;2.10;;
69894;SDS011;57172;52.034;5.090;2023-10-19T10:03:49;8.05;;;2.00;;
69894;SDS011;57172;52.034;5.090;2023-10-19T10:09:19;10.18;;;2.10;;
69894;SDS011;57172;52.034;5.090;2023-10-19T10:11:51;6.57;;;2.30;;
69894;SDS011;57172;52.034;5.090;2023-10-19T10:14:22;8.18;;;2.40;;
69894;SDS011;57172;52.034;5.090;2023-10-19T10:17:04;9.85;;;2.20;;
69894;SDS011;57172;52.034;5.090;2023-10-19T10:19:36;8.48;;;2.00;;
69894;SDS011;57172;52.034;5.090;2023-10-19T10:22:03;10.85;;;2.22;;
69894;SDS011;57172;52.034;5.090;2023-10-19T10:24:41;13.77;;;2.40;;
69894;SDS011;57172;52.034;5.090;2023-10-19T10:27:09;8.50;;;2.45;;
69894;SDS011;57172;52.034;5.090;2023-10-19T10:29:58;8.20;;;2.22;;
69894;SDS011;57172;52.034;5.090;2023-10-19T10:32:48;6.97;;;2.42;;
69894;SDS011;57172;52.034;5.090;2023-10-19T10:38:20;11.63;;;2.30;;
69894;SDS011;57172;52.034;5.090;2023-10-19T10:40:49;8.52;;;2.35;;
69894;SDS011;57172;52.034;5.090;2023-10-19T10:43:18;8.48;;;2.33;;
69894;SDS011;57172;52.034;5.090;2023-10-19T10:45:45;10.18;;;2.40;;
69894;SDS011;57172;52.034;5.090;2023-10-19T10:48:13;9.85;;;2.40;;
69894;SDS011;57172;52.034;5.090;2023-10-19T10:50:41;5.33;;;2.13;;
69894;SDS011;57172;52.034;5.090;2023-10-19T10:53:10;11.60;;;2.30;;
69894;SDS011;57172;52.034;5.090;2023-10-19T10:55:41;7.88;;;2.38;;
69894;SDS011;57172;52.034;5.090;2023-10-19T10:58:09;8.65;;;2.30;;
69894;SDS011;57172;52.034;5.090;2023-10-19T11:00:42;5.93;;;1.83;;
69894;SDS011;57172;52.034;5.090;2023-10-19T11:03:11;8.00;;;2.00;;
69894;SDS011;57172;52.034;5.090;2023-10-19T11:05:39;10.27;;;2.17;;
69894;SDS011;57172;52.034;5.090;2023-10-19T11:08:07;8.98;;;2.33;;
69894;SDS011;57172;52.034;5.090;2023-10-19T11:10:36;7.63;;;2.10;;
69894;SDS011;57172;52.034;5.090;2023-10-19T11:13:04;9.43;;;2.10;;
69894;SDS011;57172;52.034;5.090;2023-10-19T11:15:35;8.00;;;2.00;;
69894;SDS011;57172;52.034;5.090;2023-10-19T11:18:06;8.93;;;2.10;;
69894;SDS011;57172;52.034;5.090;2023-10-19T11:20:34;7.18;;;1.98;;
69894;SDS011;57172;52.034;5.090;2023-10-19T11:23:02;11.45;;;2.03;;
69894;SDS011;57172;52.034;5.090;2023-10-19T11:25:29;9.55;;;2.28;;
69894;SDS011;57172;52.034;5.090;2023-10-19T11:27:59;10.20;;;2.07;;
69894;SDS011;57172;52.034;5.090;2023-10-19T11:30:28;8.93;;;2.00;;
69894;SDS011;57172;52.034;5.090;2023-10-19T11:32:58;6.82;;;2.25;;
69894;SDS011;57172;52.034;5.090;2023-10-19T11:35:29;8.93;;;2.05;;
69894;SDS011;57172;52.034;5.090;2023-10-19T11:37:58;6.55;;;1.95;;
69894;SDS011;57172;52.034;5.090;2023-10-19T11:40:26;10.87;;;2.20;;
69894;SDS011;57172;52.034;5.090;2023-10-19T11:42:54;12.18;;;2.40;;
69894;SDS011;57172;52.034;5.090;2023-10-19T11:45:23;10.13;;;2.10;;
69894;SDS011;57172;52.034;5.090;2023-10-19T11:47:50;7.50;;;2.10;;
69894;SDS011;57172;52.034;5.090;2023-10-19T11:50:17;8.57;;;2.20;;
69894;SDS011;57172;52.034;5.090;2023-10-19T11:52:51;8.23;;;2.20;;
69894;SDS011;57172;52.034;5.090;2023-10-19T11:55:19;6.63;;;2.00;;
69894;SDS011;57172;52.034;5.090;2023-10-19T11:57:48;8.48;;;2.28;;
69894;SDS011;57172;52.034;5.090;2023-10-19T12:00:15;7.22;;;2.22;;
69894;SDS011;57172;52.034;5.090;2023-10-19T12:03:00;9.18;;;2.13;;
69894;SDS011;57172;52.034;5.090;2023-10-19T12:05:27;9.80;;;2.03;;
69894;SDS011;57172;52.034;5.090;2023-10-19T12:07:55;10.43;;;2.25;;
69894;SDS011;57172;52.034;5.090;2023-10-19T12:10:23;8.38;;;2.20;;
69894;SDS011;57172;52.034;5.090;2023-10-19T12:12:59;7.68;;;2.38;;
69894;SDS011;57172;52.034;5.090;2023-10-19T12:15:28;9.55;;;2.17;;
69894;SDS011;57172;52.034;5.090;2023-10-19T12:17:56;8.13;;;2.00;;
69894;SDS011;57172;52.034;5.090;2023-10-19T12:20:24;10.82;;;2.30;;
69894;SDS011;57172;52.034;5.090;2023-10-19T12:22:51;6.30;;;1.85;;
69894;SDS011;57172;52.034;5.090;2023-10-19T12:25:21;8.82;;;1.98;;
69894;SDS011;57172;52.034;5.090;2023-10-19T12:28:00;10.00;;;2.20;;
69894;SDS011;57172;52.034;5.090;2023-10-19T12:30:30;9.97;;;2.10;;
69894;SDS011;57172;52.034;5.090;2023-10-19T12:33:05;9.73;;;2.50;;
69894;SDS011;57172;52.034;5.090;2023-10-19T12:35:39;9.05;;;2.10;;
69894;SDS011;57172;52.034;5.090;2023-10-19T12:38:18;10.63;;;1.98;;
69894;SDS011;57172;52.034;5.090;2023-10-19T12:40:47;8.10;;;2.13;;
69894;SDS011;57172;52.034;5.090;2023-10-19T12:43:14;12.23;;;2.17;;
69894;SDS011;57172;52.034;5.090;2023-10-19T12:45:41;9.10;;;2.00;;
69894;SDS011;57172;52.034;5.090;2023-10-19T12:48:10;9.15;;;2.17;;
69894;SDS011;57172;52.034;5.090;2023-10-19T12:50:38;9.40;;;2.40;;
69894;SDS011;57172;52.034;5.090;2023-10-19T12:53:07;9.65;;;2.00;;
69894;SDS011;57172;52.034;5.090;2023-10-19T12:55:35;11.60;;;2.03;;
69894;SDS011;57172;52.034;5.090;2023-10-19T12:58:04;9.60;;;2.10;;
69894;SDS011;57172;52.034;5.090;2023-10-19T13:00:35;10.68;;;2.28;;
69894;SDS011;57172;52.034;5.090;2023-10-19T13:03:07;9.82;;;2.20;;
69894;SDS011;57172;52.034;5.090;2023-10-19T13:05:37;5.03;;;2.13;;
69894;SDS011;57172;52.034;5.090;2023-10-19T13:08:07;9.40;;;2.17;;
69894;SDS011;57172;52.034;5.090;2023-10-19T13:10:35;9.20;;;2.38;;
69894;SDS011;57172;52.034;5.090;2023-10-19T13:13:04;11.27;;;2.22;;
69894;SDS011;57172;52.034;5.090;2023-10-19T13:15:32;11.13;;;2.50;;
69894;SDS011;57172;52.034;5.090;2023-10-19T13:18:01;6.80;;;2.35;;
69894;SDS011;57172;52.034;5.090;2023-10-19T13:20:30;9.17;;;2.50;;
69894;SDS011;57172;52.034;5.090;2023-10-19T13:23:01;10.13;;;2.40;;
69894;SDS011;57172;52.034;5.090;2023-10-19T13:25:38;8.40;;;2.55;;
69894;SDS011;57172;52.034;5.090;2023-10-19T13:28:13;10.10;;;2.58;;
69894;SDS011;57172;52.034;5.090;2023-10-19T13:30:50;11.20;;;2.70;;
69894;SDS011;57172;52.034;5.090;2023-10-19T13:33:21;9.10;;;2.23;;
69894;SDS011;57172;52.034;5.090;2023-10-19T13:35:50;11.15;;;2.75;;
69894;SDS011;57172;52.034;5.090;2023-10-19T13:38:17;10.63;;;2.40;;
69894;SDS011;57172;52.034;5.090;2023-10-19T13:40:48;10.75;;;2.70;;
69894;SDS011;57172;52.034;5.090;2023-10-19T13:43:18;11.93;;;2.67;;
69894;SDS011;57172;52.034;5.090;2023-10-19T13:45:46;11.17;;;2.70;;
69894;SDS011;57172;52.034;5.090;2023-10-19T13:48:14;11.07;;;2.60;;
69894;SDS011;57172;52.034;5.090;2023-10-19T13:50:42;12.43;;;2.70;;
69894;SDS011;57172;52.034;5.090;2023-10-19T13:53:12;12.88;;;3.20;;
69894;SDS011;57172;52.034;5.090;2023-10-19T13:55:39;9.30;;;2.75;;
69894;SDS011;57172;52.034;5.090;2023-10-19T13:58:06;11.73;;;2.80;;
69894;SDS011;57172;52.034;5.090;2023-10-19T14:00:33;10.18;;;3.38;;
69894;SDS011;57172;52.034;5.090;2023-10-19T14:03:00;13.80;;;3.55;;
69894;SDS011;57172;52.034;5.090;2023-10-19T14:05:29;11.07;;;3.20;;
69894;SDS011;57172;52.034;5.090;2023-10-19T14:07:56;9.07;;;3.35;;
69894;SDS011;57172;52.034;5.090;2023-10-19T14:10:23;13.57;;;3.43;;
69894;SDS011;57172;52.034;5.090;2023-10-19T14:12:51;9.68;;;3.28;;
69894;SDS011;57172;52.034;5.090;2023-10-19T14:15:20;14.38;;;3.90;;
69894;SDS011;57172;52.034;5.090;2023-10-19T14:17:48;9.93;;;3.70;;
69894;SDS011;57172;52.034;5.090;2023-10-19T14:20:17;12.35;;;3.50;;
69894;SDS011;57172;52.034;5.090;2023-10-19T14:22:46;12.03;;;3.83;;
69894;SDS011;57172;52.034;5.090;2023-10-19T14:25:15;15.27;;;3.72;;
69894;SDS011;57172;52.034;5.090;2023-10-19T14:27:52;14.07;;;3.90;;
69894;SDS011;57172;52.034;5.090;2023-10-19T14:30:28;12.00;;;3.67;;
69894;SDS011;57172;52.034;5.090;2023-10-19T14:32:55;10.38;;;3.33;;
69894;SDS011;57172;52.034;5.090;2023-10-19T14:35:23;11.07;;;3.40;;
69894;SDS011;57172;52.034;5.090;2023-10-19T14:37:52;10.88;;;3.00;;
69894;SDS011;57172;52.034;5.090;2023-10-19T14:40:26;8.20;;;2.90;;
69894;SDS011;57172;52.034;5.090;2023-10-19T14:42:55;15.10;;;3.13;;
69894;SDS011;57172;52.034;5.090;2023-10-19T14:45:24;13.45;;;3.20;;
69894;SDS011;57172;52.034;5.090;2023-10-19T14:47:52;12.43;;;3.37;;
69894;SDS011;57172;52.034;5.090;2023-10-19T14:50:30;9.73;;;3.13;;
69894;SDS011;57172;52.034;5.090;2023-10-19T14:52:57;13.32;;;3.38;;
69894;SDS011;57172;52.034;5.090;2023-10-19T14:55:25;9.45;;;3.10;;
69894;SDS011;57172;52.034;5.090;2023-10-19T14:57:53;11.25;;;3.83;;
69894;SDS011;57172;52.034;5.090;2023-10-19T15:00:24;16.30;;;3.40;;
69894;SDS011;57172;52.034;5.090;2023-10-19T15:03:04;15.25;;;3.13;;
69894;SDS011;57172;52.034;5.090;2023-10-19T15:05:35;7.80;;;2.83;;